Time;durP1;ratioP1;P1;durP2;ratioP2;P2;SDS_P1;SDS_P2;PMS_P1;PMS_P2;Temp;Humidity;BMP_temperature;BMP_pressure;BME280_temperature;BME280_humidity;BME280_pressure;Samples;Min_cycle;Max_cycle;Signal;HPM_P1;HPM_P2
2023/08/07 00:00:36;;;;;;;3.60;1.50;;;11.80;51.40;;;;;;5040034;28;46751;-70
2023/08/07 00:03:02;;;;;;;2.90;1.20;;;11.90;51.40;;;;;;5038669;28;46363;-70
2023/08/07 00:05:28;;;;;;;2.63;1.60;;;11.80;52.70;;;;;;5041699;28;46778;-69
2023/08/07 00:07:53;;;;;;;3.23;1.77;;;11.80;53.00;;;;;;5036827;28;46418;-69
2023/08/07 00:10:19;;;;;;;4.97;1.67;;;11.80;53.30;;;;;;5040625;28;46476;-71
2023/08/07 00:12:44;;;;;;;2.90;1.50;;;11.80;52.90;;;;;;5035322;28;46895;-70
2023/08/07 00:15:11;;;;;;;3.90;1.60;;;11.80;53.30;;;;;;5041586;28;46422;-70
2023/08/07 00:17:37;;;;;;;9.70;1.50;;;11.80;53.30;;;;;;5041910;28;46536;-69
2023/08/07 00:20:04;;;;;;;5.57;1.40;;;11.80;53.30;;;;;;5040232;28;46370;-69
2023/08/07 00:22:30;;;;;;;4.70;1.80;;;11.80;53.30;;;;;;5040254;28;46426;-70
2023/08/07 00:24:56;;;;;;;4.00;1.80;;;11.80;53.30;;;;;;5039711;28;46513;-69
2023/08/07 00:27:21;;;;;;;5.23;1.33;;;11.70;53.80;;;;;;5039010;28;46839;-69
2023/08/07 00:29:47;;;;;;;3.43;1.53;;;11.70;55.50;;;;;;5035073;28;46876;-70
2023/08/07 00:32:13;;;;;;;6.77;1.80;;;11.70;55.40;;;;;;5037183;28;46363;-70
2023/08/07 00:34:39;;;;;;;4.80;1.80;;;11.70;55.00;;;;;;5038278;28;46894;-70
2023/08/07 00:37:05;;;;;;;3.63;1.63;;;11.70;54.80;;;;;;5040656;28;46563;-70
2023/08/07 00:39:31;;;;;;;3.40;1.53;;;11.80;54.80;;;;;;5039286;28;46392;-70
2023/08/07 00:41:56;;;;;;;3.13;1.60;;;11.80;54.80;;;;;;5037447;28;46421;-70
2023/08/07 00:44:23;;;;;;;3.27;1.37;;;11.80;54.90;;;;;;5040805;28;46494;-69
2023/08/07 00:46:49;;;;;;;5.27;1.50;;;11.70;54.80;;;;;;5042158;28;46727;-70
2023/08/07 00:49:17;;;;;;;3.07;1.53;;;11.80;54.90;;;;;;5042745;28;46671;-70
2023/08/07 00:51:43;;;;;;;6.53;2.10;;;11.80;55.10;;;;;;5039078;28;46423;-69
2023/08/07 00:54:11;;;;;;;5.37;1.80;;;11.70;55.20;;;;;;5037693;28;46429;-69
2023/08/07 00:56:37;;;;;;;4.53;1.40;;;11.60;55.60;;;;;;5038978;28;46506;-69
2023/08/07 00:59:03;;;;;;;3.70;1.37;;;11.70;55.90;;;;;;5038059;28;47212;-69
2023/08/07 01:01:29;;;;;;;3.60;1.70;;;11.60;56.00;;;;;;5039875;28;46719;-69
2023/08/07 01:03:54;;;;;;;4.20;1.50;;;11.60;56.30;;;;;;5038979;28;46492;-70
2023/08/07 01:06:20;;;;;;;2.93;1.60;;;11.60;56.60;;;;;;5037885;28;46562;-69
2023/08/07 01:08:46;;;;;;;2.53;1.20;;;11.50;57.10;;;;;;5034928;28;46854;-69
2023/08/07 01:11:12;;;;;;;3.33;1.47;;;11.50;57.20;;;;;;5036187;28;46450;-70
2023/08/07 01:13:44;;;;;;;2.23;1.13;;;11.50;57.40;;;;;;5036885;28;46427;-70
2023/08/07 01:16:18;;;;;;;3.43;1.13;;;11.50;57.60;;;;;;5039870;28;46409;-69
2023/08/07 01:18:46;;;;;;;5.13;1.63;;;11.50;57.60;;;;;;5039956;28;46376;-70
2023/08/07 01:21:21;;;;;;;5.33;1.40;;;11.50;57.80;;;;;;5033826;28;46689;-70
2023/08/07 01:23:47;;;;;;;4.73;1.60;;;11.40;58.00;;;;;;5040179;28;46662;-70
2023/08/07 01:26:15;;;;;;;3.40;1.30;;;11.40;58.30;;;;;;5040663;28;46341;-70
2023/08/07 01:28:50;;;;;;;5.73;1.50;;;11.40;58.70;;;;;;5042636;28;46997;-70
2023/08/07 01:31:20;;;;;;;12.00;1.73;;;11.40;59.20;;;;;;5038335;28;45907;-70
2023/08/07 01:33:58;;;;;;;3.73;1.40;;;11.30;59.20;;;;;;5039085;28;46534;-70
2023/08/07 01:36:28;;;;;;;2.60;1.47;;;11.30;59.40;;;;;;5040443;28;46564;-70
2023/08/07 01:38:56;;;;;;;2.67;1.40;;;11.30;59.40;;;;;;5037979;28;46691;-70
2023/08/07 01:41:23;;;;;;;5.40;1.37;;;11.30;59.60;;;;;;5041183;28;46565;-70
2023/08/07 01:43:48;;;;;;;3.43;1.53;;;11.30;59.60;;;;;;5040428;28;46406;-70
2023/08/07 01:46:14;;;;;;;4.87;1.40;;;11.30;59.60;;;;;;5041842;28;46545;-70
2023/08/07 01:48:39;;;;;;;3.60;1.47;;;11.30;59.50;;;;;;5045121;28;47170;-70
2023/08/07 01:51:05;;;;;;;3.40;1.43;;;11.30;59.40;;;;;;5038427;28;46421;-69
2023/08/07 01:53:31;;;;;;;3.83;1.60;;;11.40;59.40;;;;;;5038749;28;46383;-70
2023/08/07 01:55:56;;;;;;;4.57;1.43;;;11.40;59.20;;;;;;5034396;28;46402;-69
2023/08/07 01:58:22;;;;;;;3.17;1.60;;;11.40;59.40;;;;;;5037290;28;46656;-69
2023/08/07 02:00:47;;;;;;;3.47;1.60;;;11.40;59.10;;;;;;5039909;28;46505;-70
2023/08/07 02:03:13;;;;;;;4.10;1.60;;;11.50;58.90;;;;;;5040026;28;46481;-70
2023/08/07 02:05:39;;;;;;;6.40;2.20;;;11.50;59.00;;;;;;5041659;28;46341;-69
2023/08/07 02:08:04;;;;;;;3.07;1.37;;;11.50;58.80;;;;;;5037529;28;45990;-70
2023/08/07 02:10:30;;;;;;;8.00;1.50;;;11.50;58.70;;;;;;5031986;28;46461;-69
2023/08/07 02:12:58;;;;;;;4.40;1.60;;;11.50;58.60;;;;;;5034715;28;46507;-70
2023/08/07 02:15:23;;;;;;;2.90;1.30;;;11.50;58.40;;;;;;5037090;28;46524;-70
2023/08/07 02:17:49;;;;;;;3.40;1.50;;;11.50;58.60;;;;;;5035757;28;46017;-70
2023/08/07 02:20:14;;;;;;;5.33;1.73;;;11.50;58.60;;;;;;5040593;28;46431;-70
2023/08/07 02:22:40;;;;;;;3.37;1.20;;;11.50;58.50;;;;;;5041292;28;46598;-70
2023/08/07 02:25:06;;;;;;;6.10;1.50;;;11.50;58.50;;;;;;5037926;28;46499;-70
2023/08/07 02:27:31;;;;;;;7.03;1.50;;;11.50;58.70;;;;;;5039344;28;46514;-70
2023/08/07 02:29:57;;;;;;;5.03;1.60;;;11.50;58.50;;;;;;5040534;28;46513;-70
2023/08/07 02:32:23;;;;;;;5.37;1.50;;;11.50;58.40;;;;;;5041026;28;46450;-70
2023/08/07 02:34:48;;;;;;;3.33;1.50;;;11.60;58.20;;;;;;5041325;28;46466;-70
2023/08/07 02:37:14;;;;;;;5.03;1.63;;;11.60;58.00;;;;;;5044819;28;45977;-70
2023/08/07 02:39:40;;;;;;;2.80;1.30;;;11.60;58.00;;;;;;5039244;28;46468;-70
2023/08/07 02:42:06;;;;;;;8.83;2.30;;;11.60;58.00;;;;;;5035082;28;46494;-70
2023/08/07 02:44:31;;;;;;;2.90;1.50;;;11.60;57.70;;;;;;5038469;28;46481;-70
2023/08/07 02:46:57;;;;;;;5.80;1.63;;;11.60;57.80;;;;;;5042374;28;48032;-70
2023/08/07 02:49:22;;;;;;;2.83;1.50;;;11.60;58.10;;;;;;5041168;28;46359;-70
2023/08/07 02:51:48;;;;;;;5.13;1.90;;;11.60;58.20;;;;;;5045889;28;46504;-69
2023/08/07 02:54:14;;;;;;;4.87;1.80;;;11.60;58.20;;;;;;5041263;28;46725;-69
2023/08/07 02:56:40;;;;;;;4.70;1.73;;;11.60;58.30;;;;;;5039369;28;46497;-69
2023/08/07 02:59:06;;;;;;;2.83;1.50;;;11.60;58.30;;;;;;5043538;28;46324;-69
2023/08/07 03:01:31;;;;;;;3.97;1.70;;;11.60;58.30;;;;;;5041709;28;46406;-69
2023/08/07 03:03:57;;;;;;;4.20;1.73;;;11.60;58.20;;;;;;5038551;28;46406;-69
2023/08/07 03:06:23;;;;;;;4.07;1.57;;;11.60;58.20;;;;;;5042949;28;47291;-69
2023/08/07 03:08:49;;;;;;;3.60;1.60;;;11.50;58.30;;;;;;5042177;28;46564;-70
2023/08/07 03:11:15;;;;;;;2.80;1.40;;;11.50;58.20;;;;;;5039699;28;46422;-70
2023/08/07 03:13:42;;;;;;;5.07;1.60;;;11.50;58.20;;;;;;5038519;28;46471;-69
2023/08/07 03:16:08;;;;;;;11.23;1.60;;;11.40;58.20;;;;;;5037494;28;46412;-70
2023/08/07 03:18:34;;;;;;;3.60;1.67;;;11.40;58.20;;;;;;5041147;28;46408;-70
2023/08/07 03:20:59;;;;;;;8.70;2.00;;;11.40;58.20;;;;;;5037356;28;46370;-70
2023/08/07 03:23:26;;;;;;;4.53;1.57;;;11.40;58.30;;;;;;5046381;28;46624;-70
2023/08/07 03:26:05;;;;;;;4.13;1.60;;;11.40;58.20;;;;;;5036011;28;46791;-70
2023/08/07 03:28:32;;;;;;;2.50;1.30;;;11.30;58.20;;;;;;5039804;28;46563;-69
2023/08/07 03:30:57;;;;;;;4.00;2.00;;;11.40;58.10;;;;;;5039250;28;45882;-70
2023/08/07 03:33:23;;;;;;;4.60;1.70;;;11.40;58.00;;;;;;5042946;28;46355;-70
2023/08/07 03:35:48;;;;;;;3.53;1.50;;;11.40;57.90;;;;;;5037081;28;46410;-70
2023/08/07 03:38:14;;;;;;;8.83;1.80;;;11.40;57.70;;;;;;5041839;28;46771;-70
2023/08/07 03:40:40;;;;;;;3.80;1.93;;;11.50;57.70;;;;;;5037820;28;46573;-70
2023/08/07 03:43:05;;;;;;;3.60;1.80;;;11.50;57.60;;;;;;5039740;28;45969;-70
2023/08/07 03:45:31;;;;;;;3.90;1.80;;;11.50;57.40;;;;;;5036779;28;46613;-69
2023/08/07 03:47:56;;;;;;;4.73;1.70;;;11.50;57.30;;;;;;5041454;28;46624;-70
2023/08/07 03:50:22;;;;;;;2.77;1.50;;;11.50;57.20;;;;;;5042290;28;46514;-70
2023/08/07 03:52:47;;;;;;;7.20;1.87;;;11.50;57.40;;;;;;5036310;28;46411;-70
2023/08/07 03:55:13;;;;;;;6.10;1.70;;;11.50;57.30;;;;;;5037294;28;46453;-70
2023/08/07 03:57:39;;;;;;;3.97;1.60;;;11.50;57.40;;;;;;5040250;28;46421;-70
2023/08/07 04:00:05;;;;;;;4.70;1.50;;;11.50;57.30;;;;;;5038319;28;46506;-70
2023/08/07 04:02:31;;;;;;;3.80;1.60;;;11.50;57.30;;;;;;5039608;28;46372;-70
2023/08/07 04:04:56;;;;;;;3.37;1.77;;;11.50;57.20;;;;;;5037259;28;46448;-70
2023/08/07 04:07:22;;;;;;;4.00;1.90;;;11.50;57.30;;;;;;5040209;28;46520;-70
2023/08/07 04:09:48;;;;;;;4.10;1.63;;;11.50;57.30;;;;;;5033292;28;46689;-70
2023/08/07 04:12:13;;;;;;;5.30;2.03;;;11.50;57.10;;;;;;5040358;28;46652;-69
2023/08/07 04:14:39;;;;;;;4.37;1.47;;;11.50;56.90;;;;;;5041397;28;46490;-70
2023/08/07 04:17:05;;;;;;;3.10;1.50;;;11.60;56.60;;;;;;5037586;28;46679;-70
2023/08/07 04:19:30;;;;;;;2.57;1.40;;;11.60;56.30;;;;;;5031895;28;45930;-70
2023/08/07 04:21:56;;;;;;;4.07;1.87;;;11.60;56.10;;;;;;5036660;28;46395;-70
2023/08/07 04:24:21;;;;;;;5.63;1.60;;;11.60;56.10;;;;;;5038915;28;46448;-70
2023/08/07 04:26:47;;;;;;;7.60;1.67;;;11.70;55.90;;;;;;5041096;28;46784;-70
2023/08/07 04:29:13;;;;;;;3.83;1.63;;;11.60;55.60;;;;;;5036214;28;46733;-70
2023/08/07 04:31:38;;;;;;;10.10;1.93;;;11.70;55.40;;;;;;5041413;28;45881;-70
2023/08/07 04:34:04;;;;;;;3.50;1.50;;;11.70;55.10;;;;;;5036086;28;46155;-70
2023/08/07 04:36:30;;;;;;;2.80;1.60;;;11.80;54.90;;;;;;5039939;28;46591;-69
2023/08/07 04:38:56;;;;;;;4.97;1.87;;;11.80;54.50;;;;;;5038123;28;46160;-70
2023/08/07 04:41:22;;;;;;;4.93;1.67;;;11.80;54.30;;;;;;5038237;28;46503;-70
2023/08/07 04:43:48;;;;;;;2.90;1.60;;;11.80;54.20;;;;;;5041040;28;46454;-69
2023/08/07 04:46:14;;;;;;;5.90;2.20;;;11.70;54.30;;;;;;5036641;28;46443;-69
2023/08/07 04:48:40;;;;;;;4.50;1.77;;;11.70;53.80;;;;;;5037648;28;46385;-70
2023/08/07 04:51:05;;;;;;;5.77;1.63;;;11.70;54.20;;;;;;5040953;28;46758;-70
2023/08/07 04:53:31;;;;;;;5.50;2.00;;;11.70;53.90;;;;;;5038093;28;47254;-70
2023/08/07 04:55:57;;;;;;;9.57;2.53;;;11.70;53.20;;;;;;5035569;28;46428;-70
2023/08/07 04:58:22;;;;;;;9.23;1.70;;;11.70;53.30;;;;;;5036524;28;46485;-70
2023/08/07 05:00:48;;;;;;;3.80;1.90;;;11.80;53.30;;;;;;5037733;28;46348;-70
2023/08/07 05:03:15;;;;;;;3.90;1.80;;;11.90;53.40;;;;;;5038382;28;46526;-70
2023/08/07 05:05:40;;;;;;;4.60;1.73;;;12.00;53.50;;;;;;5037764;28;46423;-70
2023/08/07 05:08:06;;;;;;;6.33;2.00;;;12.60;52.30;;;;;;5042474;28;46470;-70
2023/08/07 05:10:32;;;;;;;4.10;1.40;;;13.00;50.50;;;;;;5036512;28;46585;-69
2023/08/07 05:12:57;;;;;;;3.33;1.60;;;13.10;50.50;;;;;;5039050;28;46538;-70
2023/08/07 05:15:24;;;;;;;5.20;1.83;;;13.80;49.40;;;;;;5034197;28;45810;-70
2023/08/07 05:17:50;;;;;;;6.33;1.67;;;14.90;46.60;;;;;;5044641;28;46368;-69
2023/08/07 05:20:17;;;;;;;5.50;1.47;;;15.20;43.80;;;;;;5042571;28;46524;-69
2023/08/07 05:22:43;;;;;;;6.53;1.63;;;15.80;41.90;;;;;;5042517;28;47863;-69
2023/08/07 05:25:09;;;;;;;3.00;1.33;;;15.30;41.90;;;;;;5037697;28;46128;-69
2023/08/07 05:27:35;;;;;;;5.40;2.03;;;14.60;42.70;;;;;;5041956;28;46268;-67
2023/08/07 05:30:01;;;;;;;4.83;1.60;;;14.50;43.30;;;;;;5038358;28;46777;-68
2023/08/07 05:32:28;;;;;;;3.60;1.60;;;15.30;40.30;;;;;;5040000;28;46517;-68
2023/08/07 05:34:53;;;;;;;4.00;1.70;;;16.20;37.90;;;;;;5040851;28;46762;-68
2023/08/07 05:37:19;;;;;;;5.97;2.00;;;16.90;35.70;;;;;;5035664;28;46465;-69
2023/08/07 05:39:45;;;;;;;3.87;2.00;;;17.50;32.70;;;;;;5038520;28;46510;-69
2023/08/07 05:42:12;;;;;;;5.83;1.83;;;18.00;32.20;;;;;;5037746;28;46691;-69
2023/08/07 05:44:37;;;;;;;4.73;1.77;;;18.10;29.70;;;;;;5034961;28;46680;-68
2023/08/07 05:47:03;;;;;;;4.97;1.50;;;18.00;30.20;;;;;;5040788;28;46509;-69
2023/08/07 05:49:29;;;;;;;4.97;1.73;;;17.60;27.30;;;;;;5042161;28;46417;-69
2023/08/07 05:51:55;;;;;;;3.23;1.27;;;17.20;28.60;;;;;;5041922;28;46839;-69
2023/08/07 05:54:20;;;;;;;6.37;2.10;;;17.00;28.30;;;;;;5040223;28;46516;-68
2023/08/07 05:56:46;;;;;;;8.80;2.00;;;16.40;28.60;;;;;;5040906;28;46964;-69
2023/08/07 05:59:11;;;;;;;5.10;1.80;;;16.40;29.30;;;;;;5044643;28;46779;-68
2023/08/07 06:01:37;;;;;;;3.93;1.60;;;17.00;28.30;;;;;;5044050;28;46463;-69
2023/08/07 06:04:03;;;;;;;7.33;1.70;;;17.60;26.10;;;;;;5037881;28;46644;-69
2023/08/07 06:06:29;;;;;;;5.23;1.40;;;17.80;25.30;;;;;;5043498;28;46438;-69
2023/08/07 06:09:05;;;;;;;4.33;1.60;;;18.30;24.50;;;;;;5054243;22;46451;-68
2023/08/07 06:11:31;;;;;;;3.70;1.80;;;18.70;23.60;;;;;;5007807;28;46931;-67
2023/08/07 06:13:56;;;;;;;4.30;1.50;;;18.80;22.40;;;;;;5036423;28;46493;-68
2023/08/07 06:16:22;;;;;;;3.43;1.60;;;18.90;21.70;;;;;;5036076;28;46483;-67
2023/08/07 06:18:48;;;;;;;6.33;1.50;;;18.40;21.20;;;;;;5038687;28;46621;-68
2023/08/07 06:21:13;;;;;;;7.73;1.77;;;17.20;23.80;;;;;;5033823;28;46521;-68
2023/08/07 06:23:39;;;;;;;4.03;1.70;;;16.40;25.70;;;;;;5037754;28;46745;-68
2023/08/07 06:26:04;;;;;;;6.53;1.47;;;16.40;25.90;;;;;;5035232;28;46576;-67
2023/08/07 06:28:33;;;;;;;3.03;1.30;;;17.50;23.70;;;;;;5040015;28;46486;-67
2023/08/07 06:31:07;;;;;;;6.83;1.97;;;17.50;23.20;;;;;;5037498;28;47166;-67
2023/08/07 06:33:33;;;;;;;5.83;1.70;;;16.50;24.60;;;;;;5037563;28;46734;-68
2023/08/07 06:36:00;;;;;;;7.00;1.80;;;15.90;25.90;;;;;;5039961;28;46475;-67
2023/08/07 06:38:25;;;;;;;6.83;1.80;;;15.50;26.90;;;;;;5035764;28;46403;-67
2023/08/07 06:40:51;;;;;;;3.97;1.67;;;15.40;27.50;;;;;;5033167;28;46579;-68
2023/08/07 06:43:16;;;;;;;4.83;1.77;;;16.10;25.00;;;;;;5037831;28;46689;-68
2023/08/07 06:45:42;;;;;;;5.70;1.93;;;17.40;21.90;;;;;;5025969;28;46508;-67
2023/08/07 06:48:08;;;;;;;5.10;2.27;;;18.40;19.90;;;;;;5023931;28;46475;-67
2023/08/07 06:50:33;;;;;;;7.10;1.40;;;19.20;18.30;;;;;;5041039;28;46461;-67
2023/08/07 06:52:59;;;;;;;5.53;1.60;;;19.20;17.00;;;;;;5036961;28;46520;-66
2023/08/07 06:55:26;;;;;;;4.60;1.40;;;19.10;17.40;;;;;;5035734;28;46364;-67
2023/08/07 06:57:51;;;;;;;2.90;1.50;;;19.10;17.30;;;;;;5036856;28;46458;-67
2023/08/07 07:00:17;;;;;;;3.70;1.63;;;19.00;17.10;;;;;;5035115;28;47204;-66
2023/08/07 07:02:43;;;;;;;3.50;1.40;;;19.40;16.00;;;;;;5036411;28;46483;-67
2023/08/07 07:05:08;;;;;;;6.97;1.90;;;19.50;15.90;;;;;;5033482;28;46544;-66
2023/08/07 07:07:34;;;;;;;3.10;1.57;;;18.10;18.40;;;;;;5037408;28;46400;-67
2023/08/07 07:10:00;;;;;;;5.87;1.50;;;17.30;20.50;;;;;;5037637;28;46513;-65
2023/08/07 07:12:29;;;;;;;7.87;2.20;;;16.50;22.30;;;;;;5031827;28;46415;-68
2023/08/07 07:14:55;;;;;;;11.10;1.87;;;16.20;23.70;;;;;;5036977;28;46505;-67
2023/08/07 07:17:20;;;;;;;5.27;2.17;;;15.90;24.00;;;;;;5039459;28;46502;-68
2023/08/07 07:19:46;;;;;;;9.00;1.57;;;15.50;24.80;;;;;;5037451;28;46427;-64
2023/08/07 07:22:12;;;;;;;5.03;2.53;;;15.20;25.60;;;;;;5038268;28;46531;-70
2023/08/07 07:24:38;;;;;;;8.80;2.80;;;15.20;26.50;;;;;;5036652;28;46753;-70
2023/08/07 07:27:04;;;;;;;5.07;2.00;;;15.50;26.00;;;;;;5039948;28;46364;-67
2023/08/07 07:29:29;;;;;;;4.50;1.73;;;15.70;25.90;;;;;;5036820;28;46577;-66
2023/08/07 07:31:55;;;;;;;5.70;1.97;;;15.80;26.00;;;;;;5031152;28;46474;-66
2023/08/07 07:34:21;;;;;;;5.73;1.93;;;15.80;26.00;;;;;;5032872;28;46413;-66
2023/08/07 07:36:47;;;;;;;5.57;1.70;;;15.60;26.10;;;;;;5033779;28;47525;-66
2023/08/07 07:39:13;;;;;;;3.50;1.87;;;15.40;25.70;;;;;;5037330;28;46417;-66
2023/08/07 07:41:38;;;;;;;7.30;1.77;;;15.50;26.10;;;;;;5031857;28;46410;-71
2023/08/07 07:44:04;;;;;;;6.87;2.10;;;15.60;26.80;;;;;;5032257;28;46567;-70
2023/08/07 07:46:31;;;;;;;14.00;2.80;;;15.60;26.40;;;;;;5034812;28;46549;-68
2023/08/07 07:48:57;;;;;;;7.70;2.20;;;15.60;26.50;;;;;;5034961;28;46779;-69
2023/08/07 07:51:23;;;;;;;9.83;2.60;;;16.00;25.90;;;;;;5036305;28;46522;-69
2023/08/07 07:53:49;;;;;;;5.23;2.20;;;16.20;25.40;;;;;;5034715;28;46116;-69
2023/08/07 07:56:14;;;;;;;11.13;2.70;;;16.20;25.60;;;;;;5036839;28;45871;-70
2023/08/07 07:58:40;;;;;;;4.73;2.00;;;16.20;25.00;;;;;;5031063;28;46430;-70
2023/08/07 08:01:07;;;;;;;6.30;2.27;;;16.00;25.20;;;;;;5036059;28;46362;-67
2023/08/07 08:03:32;;;;;;;7.53;1.63;;;15.90;25.90;;;;;;5036159;28;46521;-67
2023/08/07 08:05:58;;;;;;;5.90;2.20;;;15.90;24.60;;;;;;5037034;28;46390;-66
2023/08/07 08:08:24;;;;;;;5.10;1.97;;;15.70;25.30;;;;;;5039290;28;47177;-66
2023/08/07 08:10:51;;;;;;;2.90;1.50;;;15.70;25.60;;;;;;5035952;28;45901;-66
2023/08/07 08:13:16;;;;;;;3.60;1.70;;;15.80;25.90;;;;;;5032984;28;45873;-66
2023/08/07 08:15:43;;;;;;;4.67;1.90;;;15.90;25.40;;;;;;5032267;28;46843;-67
2023/08/07 08:18:09;;;;;;;7.37;2.00;;;15.90;25.00;;;;;;5030935;28;46727;-67
2023/08/07 08:20:35;;;;;;;9.03;2.17;;;16.00;25.30;;;;;;5033944;28;46720;-68
2023/08/07 08:23:00;;;;;;;7.07;2.50;;;16.00;24.80;;;;;;5036678;28;46601;-67
2023/08/07 08:25:26;;;;;;;4.03;2.03;;;16.20;25.00;;;;;;5033027;28;46300;-68
2023/08/07 08:27:51;;;;;;;3.83;1.73;;;16.10;25.00;;;;;;5034883;28;46332;-67
2023/08/07 08:30:17;;;;;;;5.30;1.87;;;16.20;24.90;;;;;;5039604;28;46407;-67
2023/08/07 08:32:44;;;;;;;7.83;2.10;;;16.20;24.70;;;;;;5037021;28;45894;-67
2023/08/07 08:35:09;;;;;;;4.23;1.60;;;16.10;24.80;;;;;;5034020;28;46501;-67
2023/08/07 08:37:35;;;;;;;3.50;1.77;;;15.90;24.80;;;;;;5032464;28;47080;-67
2023/08/07 08:40:01;;;;;;;4.40;2.10;;;15.70;25.00;;;;;;5037666;28;46791;-66
2023/08/07 08:42:27;;;;;;;10.30;1.90;;;15.70;25.30;;;;;;5034002;28;46944;-67
2023/08/07 08:44:54;;;;;;;4.90;1.70;;;15.90;25.50;;;;;;5039226;28;46501;-67
2023/08/07 08:47:25;;;;;;;5.23;1.70;;;16.00;25.40;;;;;;5032272;28;46447;-66
2023/08/07 08:50:04;;;;;;;5.43;1.70;;;16.00;25.10;;;;;;5036248;28;46478;-66
2023/08/07 08:52:31;;;;;;;3.47;1.63;;;16.10;24.80;;;;;;5034296;28;46358;-66
2023/08/07 08:54:58;;;;;;;5.27;1.80;;;16.20;24.70;;;;;;5034499;28;46531;-66
2023/08/07 08:57:26;;;;;;;6.40;2.20;;;16.20;24.70;;;;;;5035548;28;46217;-66
2023/08/07 08:59:52;;;;;;;4.70;1.87;;;16.30;24.90;;;;;;5038276;28;46469;-67
2023/08/07 09:02:18;;;;;;;3.60;1.67;;;16.30;25.10;;;;;;5037324;28;46669;-66
2023/08/07 09:04:46;;;;;;;6.20;2.17;;;16.40;24.50;;;;;;5034553;28;46464;-66
2023/08/07 09:07:18;;;;;;;3.80;1.70;;;16.30;24.50;;;;;;5039754;28;46367;-67
2023/08/07 09:09:46;;;;;;;9.10;2.17;;;16.50;25.70;;;;;;5034827;28;46872;-67
2023/08/07 09:12:18;;;;;;;4.83;2.27;;;16.70;24.60;;;;;;5035103;28;46515;-67
2023/08/07 09:14:49;;;;;;;4.00;1.80;;;16.80;24.40;;;;;;5034212;28;46517;-66
2023/08/07 09:17:16;;;;;;;4.50;1.80;;;16.80;24.30;;;;;;5033803;28;46048;-66
2023/08/07 09:19:42;;;;;;;4.63;1.57;;;16.70;24.10;;;;;;5037585;28;46924;-66
2023/08/07 09:22:08;;;;;;;4.23;2.03;;;16.70;23.30;;;;;;5030930;28;46056;-66
2023/08/07 09:24:34;;;;;;;5.97;2.07;;;16.60;23.70;;;;;;5033728;28;46471;-70
2023/08/07 09:27:00;;;;;;;7.30;2.20;;;16.40;24.10;;;;;;5038028;28;46434;-69
2023/08/07 09:29:27;;;;;;;5.50;1.83;;;16.30;24.50;;;;;;5037810;28;46443;-69
2023/08/07 09:31:54;;;;;;;12.27;2.23;;;16.60;24.60;;;;;;5037869;28;46360;-70
2023/08/07 09:34:20;;;;;;;5.03;1.90;;;16.70;24.10;;;;;;5037563;28;46554;-70
2023/08/07 09:36:46;;;;;;;3.40;1.70;;;16.70;24.20;;;;;;5039064;28;47577;-70
2023/08/07 09:39:11;;;;;;;6.70;2.90;;;16.90;24.30;;;;;;5041551;28;45894;-70
2023/08/07 09:41:37;;;;;;;7.80;1.83;;;16.80;23.70;;;;;;5036285;28;46543;-68
2023/08/07 09:44:13;;;;;;;3.60;1.83;;;16.80;23.80;;;;;;5039776;28;46256;-65
2023/08/07 09:46:44;;;;;;;3.23;1.57;;;16.80;24.10;;;;;;5041283;28;46581;-66
2023/08/07 09:49:10;;;;;;;9.50;1.90;;;16.80;22.90;;;;;;5042998;28;46454;-67
2023/08/07 09:51:43;;;;;;;7.43;1.80;;;16.90;21.90;;;;;;5040592;28;46503;-67
2023/08/07 09:54:09;;;;;;;4.73;1.50;;;17.00;21.90;;;;;;5030529;28;47147;-66
2023/08/07 09:56:36;;;;;;;4.20;1.90;;;17.20;21.60;;;;;;5041750;28;46755;-66
2023/08/07 09:59:01;;;;;;;4.53;1.70;;;17.40;21.60;;;;;;5047947;28;46382;-65
2023/08/07 10:01:27;;;;;;;4.10;1.63;;;17.60;21.90;;;;;;5043669;28;46647;-67
2023/08/07 10:03:53;;;;;;;6.27;1.80;;;17.70;21.80;;;;;;5045342;28;46581;-65
2023/08/07 10:06:20;;;;;;;3.53;1.50;;;17.70;21.50;;;;;;5039533;28;46454;-63
2023/08/07 10:08:46;;;;;;;3.93;2.10;;;17.90;21.00;;;;;;5042278;28;46125;-66
2023/08/07 10:11:11;;;;;;;5.93;1.80;;;17.80;20.40;;;;;;5042601;28;46320;-67
2023/08/07 10:13:38;;;;;;;6.93;1.50;;;17.50;20.70;;;;;;5038514;28;46749;-66
2023/08/07 10:16:04;;;;;;;3.00;1.50;;;17.10;20.50;;;;;;5040177;28;47118;-66
2023/08/07 10:18:30;;;;;;;3.60;1.60;;;17.20;21.30;;;;;;5039312;28;45946;-66
2023/08/07 10:20:57;;;;;;;3.77;1.50;;;17.50;21.30;;;;;;5045308;28;46516;-66
2023/08/07 10:23:23;;;;;;;4.27;1.83;;;17.40;20.60;;;;;;5044092;28;46503;-65
2023/08/07 10:25:50;;;;;;;3.33;1.60;;;17.40;20.60;;;;;;5039083;28;47743;-65
2023/08/07 10:28:19;;;;;;;5.57;1.63;;;17.80;20.20;;;;;;5041450;28;46173;-66
2023/08/07 10:30:44;;;;;;;3.83;1.60;;;18.30;19.10;;;;;;5046291;28;46824;-67
2023/08/07 10:33:12;;;;;;;8.40;1.60;;;18.80;18.60;;;;;;5043131;28;45927;-66
2023/08/07 10:35:45;;;;;;;3.30;1.67;;;18.80;18.10;;;;;;5038797;28;46627;-65
2023/08/07 10:38:11;;;;;;;4.77;1.70;;;18.70;18.20;;;;;;5035764;28;46450;-66
2023/08/07 10:41:00;;;;;;;4.67;1.60;;;18.70;17.20;;;;;;5045820;28;46481;-66
2023/08/07 10:43:27;;;;;;;5.63;1.90;;;18.70;17.40;;;;;;5041851;28;46553;-65
2023/08/07 10:45:54;;;;;;;3.87;1.43;;;18.60;17.60;;;;;;5039404;28;46428;-66
2023/08/07 10:48:21;;;;;;;3.97;1.53;;;18.20;18.00;;;;;;5046515;28;46423;-65
2023/08/07 10:50:59;;;;;;;3.07;1.50;;;17.90;18.40;;;;;;5044850;28;46643;-65
2023/08/07 10:53:35;;;;;;;6.53;1.77;;;17.70;17.70;;;;;;5038444;28;45791;-66
2023/08/07 10:56:03;;;;;;;3.97;1.73;;;17.60;18.00;;;;;;5034669;28;46379;-66
2023/08/07 10:58:34;;;;;;;4.77;1.80;;;17.60;18.50;;;;;;5045087;28;46746;-65
2023/08/07 11:01:40;;;;;;;4.20;1.77;;;17.30;19.00;;;;;;5040866;28;46107;-66
2023/08/07 11:04:08;;;;;;;5.80;2.47;;;17.20;19.90;;;;;;5044323;28;46328;-66
2023/08/07 11:06:36;;;;;;;3.63;1.83;;;17.10;20.40;;;;;;5043297;28;46671;-66
2023/08/07 11:09:09;;;;;;;4.23;1.60;;;17.10;20.40;;;;;;5042141;28;46473;-65
2023/08/07 11:11:40;;;;;;;2.83;1.20;;;17.10;20.00;;;;;;5048595;28;46475;-66
2023/08/07 11:14:07;;;;;;;8.40;2.23;;;17.00;19.20;;;;;;5038085;28;46397;-65
2023/08/07 11:16:34;;;;;;;3.47;1.83;;;17.20;19.10;;;;;;5030080;28;47024;-65
2023/08/07 11:19:00;;;;;;;3.53;1.60;;;17.30;17.80;;;;;;5041968;28;46445;-66
2023/08/07 11:21:26;;;;;;;7.17;1.40;;;17.50;17.50;;;;;;5036668;28;46461;-67
2023/08/07 11:23:51;;;;;;;3.73;1.63;;;18.00;17.20;;;;;;5033000;28;46480;-70
2023/08/07 11:26:17;;;;;;;3.40;1.50;;;18.20;16.40;;;;;;5034225;28;47253;-67
2023/08/07 11:28:43;;;;;;;6.47;1.70;;;18.10;16.30;;;;;;5033155;28;46459;-67
2023/08/07 11:31:08;;;;;;;5.27;1.40;;;18.10;16.10;;;;;;5036980;28;45980;-66
2023/08/07 11:33:36;;;;;;;3.23;1.50;;;18.20;16.20;;;;;;5033758;28;46482;-67
2023/08/07 11:36:02;;;;;;;3.40;1.70;;;18.10;16.00;;;;;;5034879;28;46411;-67
2023/08/07 11:38:33;;;;;;;4.17;1.60;;;18.00;16.30;;;;;;5034039;28;46458;-67
2023/08/07 11:41:04;;;;;;;4.23;1.90;;;18.30;16.10;;;;;;5033071;28;45808;-68
2023/08/07 11:43:31;;;;;;;2.90;1.47;;;18.70;15.20;;;;;;5032812;28;46590;-68
2023/08/07 11:46:01;;;;;;;10.53;1.90;;;19.20;14.80;;;;;;5037155;28;46203;-68
2023/08/07 11:48:30;;;;;;;3.43;1.80;;;19.70;14.10;;;;;;5037352;28;46444;-69
2023/08/07 11:50:57;;;;;;;6.20;2.10;;;20.20;13.50;;;;;;5033884;28;46390;-68
2023/08/07 11:53:26;;;;;;;3.77;2.13;;;20.40;12.90;;;;;;5036577;28;46749;-67
2023/08/07 11:56:14;;;;;;;5.77;1.90;;;20.00;11.10;;;;;;5029728;28;46380;-67
2023/08/07 11:58:40;;;;;;;3.70;1.70;;;19.60;12.00;;;;;;5036897;28;46501;-66
2023/08/07 12:01:09;;;;;;;4.17;1.70;;;19.20;12.50;;;;;;5042475;28;46483;-67
2023/08/07 12:03:41;;;;;;;5.60;1.50;;;18.60;12.10;;;;;;5038883;28;46447;-67
2023/08/07 12:06:08;;;;;;;3.30;1.40;;;18.40;13.00;;;;;;5039363;28;46866;-68
2023/08/07 12:08:35;;;;;;;3.30;1.60;;;18.50;13.50;;;;;;5041120;28;46482;-68
2023/08/07 12:11:05;;;;;;;2.87;1.50;;;19.10;14.00;;;;;;5041788;28;46893;-67
2023/08/07 12:13:32;;;;;;;4.77;1.57;;;19.10;14.00;;;;;;5043104;28;45956;-67
2023/08/07 12:15:58;;;;;;;5.60;1.40;;;18.70;12.40;;;;;;5040986;28;46436;-66
2023/08/07 12:18:26;;;;;;;8.30;1.63;;;18.40;12.00;;;;;;5043623;28;46464;-66
2023/08/07 12:20:57;;;;;;;3.60;1.30;;;18.30;10.40;;;;;;5044656;28;46430;-66
2023/08/07 12:23:22;;;;;;;4.73;1.40;;;18.50;10.30;;;;;;5042595;28;46477;-66
2023/08/07 12:25:48;;;;;;;16.13;1.50;;;18.80;10.10;;;;;;5048458;28;46542;-67
2023/08/07 12:28:16;;;;;;;6.30;1.57;;;19.00;10.10;;;;;;5045680;28;46520;-65
2023/08/07 12:30:45;;;;;;;2.90;1.30;;;19.00;10.10;;;;;;5044855;28;45926;-65
2023/08/07 12:33:11;;;;;;;4.30;1.40;;;19.10;9.50;;;;;;5043649;28;46833;-65
2023/08/07 12:35:36;;;;;;;4.27;1.27;;;19.20;9.60;;;;;;5040901;28;46442;-65
2023/08/07 12:38:05;;;;;;;3.40;1.63;;;19.30;9.50;;;;;;5042097;28;46532;-66
2023/08/07 12:40:31;;;;;;;3.17;1.50;;;19.40;9.60;;;;;;5045303;28;46445;-65
2023/08/07 12:42:58;;;;;;;7.10;1.77;;;19.30;10.20;;;;;;5043550;28;46431;-65